createdAt,value
2018-02-20T00:00:29.956Z,24.70
2018-02-20T00:01:29.968Z,25.50
2018-02-20T00:02:29.969Z,25.40
2018-02-20T00:03:29.984Z,25.10
2018-02-20T00:04:29.991Z,24.90
2018-02-20T00:05:30.015Z,24.40
2018-02-20T00:06:30.012Z,25.60
2018-02-20T00:07:30.013Z,25.50
2018-02-20T00:08:30.033Z,25.50
2018-02-20T00:09:30.049Z,25.30
2018-02-20T00:10:30.042Z,26.50
2018-02-20T00:11:30.056Z,26.00
2018-02-20T00:12:30.062Z,25.70
2018-02-20T00:13:30.069Z,25.50
2018-02-20T00:14:30.084Z,25.20
2018-02-20T00:15:30.088Z,26.50
2018-02-20T00:16:30.099Z,26.50
2018-02-20T00:17:30.108Z,25.90
2018-02-20T00:18:30.118Z,25.70
2018-02-20T00:19:30.139Z,26.80
2018-02-20T00:20:30.146Z,27.00
2018-02-20T00:21:30.171Z,26.00
2018-02-20T00:22:30.165Z,26.00
2018-02-20T00:23:30.175Z,26.00
2018-02-20T00:24:30.182Z,26.20
2018-02-20T00:25:30.192Z,27.10
2018-02-20T00:26:30.198Z,26.70
2018-02-20T00:27:30.212Z,27.10
2018-02-20T00:28:30.213Z,26.40
2018-02-20T00:29:30.221Z,26.60
2018-02-20T00:30:30.236Z,27.40
2018-02-20T00:31:30.241Z,26.90
2018-02-20T00:32:30.256Z,26.10
2018-02-20T00:33:30.267Z,26.40
2018-02-20T00:34:30.268Z,26.50
2018-02-20T00:35:30.282Z,26.00
2018-02-20T00:36:30.283Z,26.60
2018-02-20T00:37:30.296Z,27.60
2018-02-20T00:38:30.306Z,27.00
2018-02-20T00:39:30.320Z,27.90
2018-02-20T00:40:30.329Z,27.10
2018-02-20T00:41:30.337Z,26.60
2018-02-20T00:42:30.337Z,26.30
2018-02-20T00:43:30.354Z,27.50
2018-02-20T00:44:30.357Z,27.70
2018-02-20T00:45:30.370Z,27.00
2018-02-20T00:46:30.379Z,28.10
2018-02-20T00:47:30.388Z,27.50
2018-02-20T00:48:30.397Z,27.20
2018-02-20T00:49:30.413Z,27.80
2018-02-20T00:50:30.409Z,28.00
2018-02-20T00:51:30.427Z,27.30
2018-02-20T00:52:30.429Z,27.80
2018-02-20T00:53:30.439Z,27.00
2018-02-20T00:54:30.453Z,27.70
2018-02-20T00:55:30.454Z,27.40
2018-02-20T00:56:30.472Z,28.70
2018-02-20T00:57:30.478Z,28.80
2018-02-20T00:58:30.486Z,28.70
2018-02-20T00:59:30.504Z,28.80
2018-02-20T01:00:30.497Z,30.90
2018-02-20T01:01:30.506Z,29.30
2018-02-20T01:02:30.523Z,29.80
2018-02-20T01:03:30.528Z,31.00
2018-02-20T01:04:30.542Z,30.00
2018-02-20T01:05:30.549Z,29.60
2018-02-20T01:06:30.553Z,29.50
2018-02-20T01:07:30.564Z,29.90
2018-02-20T01:08:30.569Z,30.60
2018-02-20T01:09:30.578Z,29.60
2018-02-20T01:10:30.589Z,30.30
2018-02-20T01:11:30.600Z,30.80
2018-02-20T01:12:30.607Z,30.30
2018-02-20T01:13:30.651Z,31.20
2018-02-20T01:14:30.625Z,31.10
2018-02-20T01:15:30.636Z,30.10
2018-02-20T01:16:30.649Z,30.50
2018-02-20T01:17:30.659Z,30.20
2018-02-20T01:18:30.659Z,30.70
2018-02-20T01:19:30.671Z,31.30
2018-02-20T01:20:30.676Z,30.70
2018-02-20T01:21:30.684Z,32.00
2018-02-20T01:22:30.698Z,30.40
2018-02-20T01:23:30.705Z,30.40
2018-02-20T01:24:30.720Z,32.00
2018-02-20T01:25:30.728Z,32.50
2018-02-20T01:26:30.743Z,32.00
2018-02-20T01:27:30.758Z,31.90
2018-02-20T01:28:30.752Z,30.40
2018-02-20T01:29:30.757Z,32.10
2018-02-20T01:30:30.786Z,31.50
2018-02-20T01:31:30.779Z,33.30
2018-02-20T01:32:30.790Z,34.00
2018-02-20T01:33:30.796Z,31.70
2018-02-20T01:34:30.801Z,32.50
2018-02-20T01:35:30.817Z,32.10
2018-02-20T01:36:30.820Z,33.30
2018-02-20T01:37:30.828Z,34.20
2018-02-20T01:38:30.845Z,33.90
2018-02-20T01:39:30.851Z,33.20
2018-02-20T01:40:30.859Z,33.50
2018-02-20T01:41:30.867Z,32.80
2018-02-20T01:42:30.872Z,33.70
2018-02-20T01:43:30.885Z,34.30
2018-02-20T01:44:30.895Z,34.70
2018-02-20T01:45:30.902Z,33.90
2018-02-20T01:46:30.912Z,33.00
2018-02-20T01:47:30.921Z,34.10
2018-02-20T01:48:30.932Z,34.80
2018-02-20T01:49:30.940Z,34.40
2018-02-20T01:50:30.945Z,33.70
2018-02-20T01:51:30.958Z,34.20
2018-02-20T01:52:30.960Z,33.20
2018-02-20T01:53:30.972Z,34.30
2018-02-20T01:54:30.981Z,34.80
2018-02-20T01:55:30.990Z,35.20
2018-02-20T01:56:31.001Z,35.10
2018-02-20T01:57:31.014Z,35.60
2018-02-20T01:58:31.015Z,34.40
2018-02-20T01:59:31.029Z,33.90
2018-02-20T02:00:31.283Z,36.90
2018-02-20T02:01:31.043Z,34.80
2018-02-20T02:02:31.054Z,36.40
2018-02-20T02:03:31.063Z,35.00
2018-02-20T02:04:31.070Z,34.90
2018-02-20T02:05:31.079Z,34.90
2018-02-20T02:06:31.090Z,35.50
2018-02-20T02:07:31.099Z,36.40
2018-02-20T02:08:31.106Z,35.20
2018-02-20T02:09:31.113Z,35.10
2018-02-20T02:10:31.126Z,34.70
2018-02-20T02:11:31.138Z,36.20
2018-02-20T02:12:31.148Z,36.20
2018-02-20T02:13:31.151Z,35.80
2018-02-20T02:14:31.156Z,34.70
2018-02-20T02:15:31.177Z,37.00
2018-02-20T02:16:31.174Z,36.00
2018-02-20T02:17:31.185Z,36.70
2018-02-20T02:18:31.199Z,36.70
2018-02-20T02:19:31.201Z,36.70
2018-02-20T02:20:31.218Z,37.00
2018-02-20T02:21:31.230Z,36.80
2018-02-20T02:22:31.226Z,37.10
2018-02-20T02:23:31.248Z,37.40
2018-02-20T02:24:31.247Z,37.40
2018-02-20T02:25:31.259Z,36.70
2018-02-20T02:26:31.269Z,37.70
2018-02-20T02:27:31.272Z,37.70
2018-02-20T02:28:31.292Z,37.30
2018-02-20T02:29:31.292Z,37.00
2018-02-20T02:30:31.298Z,37.50
2018-02-20T02:31:31.312Z,37.80
2018-02-20T02:32:31.337Z,37.00
2018-02-20T02:33:31.331Z,36.70
2018-02-20T02:34:31.339Z,36.80
2018-02-20T02:35:31.361Z,37.90
2018-02-20T02:36:31.375Z,37.50
2018-02-20T02:37:31.368Z,37.20
2018-02-20T02:38:31.383Z,38.70
2018-02-20T02:39:31.397Z,38.50
2018-02-20T02:40:31.400Z,36.80
2018-02-20T02:41:31.410Z,38.10
2018-02-20T02:42:31.427Z,41.20
2018-02-20T02:43:31.432Z,38.90
2018-02-20T02:44:31.442Z,39.30
2018-02-20T02:45:31.457Z,38.10
2018-02-20T02:46:31.457Z,38.70
2018-02-20T02:47:31.483Z,38.90
2018-02-20T02:48:31.476Z,38.90
2018-02-20T02:49:31.482Z,39.40
2018-02-20T02:50:31.498Z,40.30
2018-02-20T02:51:31.512Z,38.60
2018-02-20T02:52:31.510Z,39.70
2018-02-20T02:53:31.523Z,38.30
2018-02-20T02:54:31.533Z,37.90
2018-02-20T02:55:31.540Z,38.40
2018-02-20T02:56:31.544Z,40.60
2018-02-20T02:57:31.551Z,38.40
2018-02-20T02:58:31.567Z,39.00
2018-02-20T02:59:31.582Z,39.50
2018-02-20T03:00:31.589Z,38.90
2018-02-20T03:01:31.591Z,40.30
2018-02-20T03:02:31.595Z,40.10
2018-02-20T03:03:31.608Z,38.40
2018-02-20T03:04:31.611Z,39.20
2018-02-20T03:05:31.621Z,39.10
2018-02-20T03:06:31.638Z,40.20
2018-02-20T03:07:31.641Z,39.80
2018-02-20T03:08:31.655Z,39.50
2018-02-20T03:09:31.662Z,39.70
2018-02-20T03:10:31.672Z,39.50
2018-02-20T03:11:31.679Z,38.70
2018-02-20T03:12:31.683Z,40.50
2018-02-20T03:13:31.692Z,41.00
2018-02-20T03:14:31.709Z,40.00
2018-02-20T03:15:31.714Z,40.80
2018-02-20T03:16:31.726Z,40.90
2018-02-20T03:17:31.736Z,41.90
2018-02-20T03:18:31.739Z,40.00
2018-02-20T03:19:31.768Z,40.40
2018-02-20T03:20:31.757Z,40.40
2018-02-20T03:21:31.765Z,41.10
2018-02-20T03:22:31.784Z,42.30
2018-02-20T03:23:31.783Z,41.50
2018-02-20T03:24:31.795Z,40.10
2018-02-20T03:25:31.803Z,40.80
2018-02-20T03:26:31.813Z,40.80
2018-02-20T03:27:31.824Z,40.20
2018-02-20T03:28:31.830Z,40.20
2018-02-20T03:29:31.840Z,41.80
2018-02-20T03:30:31.851Z,40.50
2018-02-20T03:31:31.853Z,42.10
2018-02-20T03:32:31.875Z,43.00
2018-02-20T03:33:31.874Z,40.30
2018-02-20T03:34:31.881Z,41.40
2018-02-20T03:35:31.891Z,41.90
2018-02-20T03:36:31.897Z,42.80
2018-02-20T03:37:31.906Z,42.80
2018-02-20T03:38:31.920Z,40.80
2018-02-20T03:39:31.925Z,41.40
2018-02-20T03:40:31.938Z,40.40
2018-02-20T03:41:31.952Z,42.20
2018-02-20T03:42:31.952Z,40.40
2018-02-20T03:43:31.967Z,41.80
2018-02-20T03:44:31.974Z,41.20
2018-02-20T03:45:31.981Z,41.30
2018-02-20T03:46:31.995Z,43.20
2018-02-20T03:47:31.996Z,41.60
2018-02-20T03:48:32.011Z,41.60
2018-02-20T03:49:32.022Z,43.20
2018-02-20T03:50:32.025Z,42.20
2018-02-20T03:51:32.038Z,43.70
2018-02-20T03:52:32.042Z,42.30
2018-02-20T03:53:32.051Z,42.40
2018-02-20T03:54:32.068Z,41.50
2018-02-20T03:55:32.067Z,42.60
2018-02-20T03:56:32.082Z,42.70
2018-02-20T03:57:32.090Z,43.00
2018-02-20T03:58:32.094Z,41.50
2018-02-20T03:59:32.124Z,43.10
2018-02-20T04:00:32.117Z,44.00
2018-02-20T04:01:32.122Z,42.20
2018-02-20T04:02:32.135Z,42.90
2018-02-20T04:03:32.149Z,42.70
2018-02-20T04:04:32.150Z,41.90
2018-02-20T04:05:32.165Z,42.40
2018-02-20T04:06:32.164Z,40.80
2018-02-20T04:07:32.177Z,42.60
2018-02-20T04:08:32.182Z,41.60
2018-02-20T04:09:32.190Z,42.10
2018-02-20T04:10:32.207Z,41.70
2018-02-20T04:11:32.212Z,43.40
2018-02-20T04:12:32.229Z,42.20
2018-02-20T04:13:32.232Z,43.00
2018-02-20T04:14:32.241Z,43.20
2018-02-20T04:15:32.250Z,40.80
2018-02-20T04:16:32.252Z,43.20
2018-02-20T04:17:32.264Z,42.20
2018-02-20T04:18:32.275Z,41.50
2018-02-20T04:19:32.284Z,40.90
2018-02-20T04:20:32.298Z,42.30
2018-02-20T04:21:32.317Z,42.30
2018-02-20T04:22:32.309Z,43.10
2018-02-20T04:23:32.335Z,41.00
2018-02-20T04:24:32.328Z,42.80
2018-02-20T04:25:32.333Z,41.50
2018-02-20T04:26:32.350Z,44.30
2018-02-20T04:27:32.352Z,43.00
2018-02-20T04:28:32.366Z,43.20
2018-02-20T04:29:32.375Z,41.90
2018-02-20T04:30:32.398Z,43.20
2018-02-20T04:31:32.394Z,42.80
2018-02-20T04:32:32.399Z,42.00
2018-02-20T04:33:32.398Z,41.10
2018-02-20T04:34:32.412Z,41.20
2018-02-20T04:35:32.419Z,42.40
2018-02-20T04:36:32.431Z,42.90
2018-02-20T04:37:32.435Z,42.10
2018-02-20T04:38:32.442Z,41.70
2018-02-20T04:39:32.452Z,41.70
2018-02-20T04:40:32.459Z,42.50
2018-02-20T04:41:32.467Z,42.90
2018-02-20T04:42:32.481Z,43.00
2018-02-20T04:43:32.480Z,41.90
2018-02-20T04:44:32.494Z,41.10
2018-02-20T04:45:32.503Z,42.10
2018-02-20T04:46:32.510Z,43.10
2018-02-20T04:47:32.523Z,44.50
2018-02-20T04:48:32.531Z,41.70
2018-02-20T04:49:32.536Z,44.10
2018-02-20T04:50:32.549Z,44.10
2018-02-20T04:51:32.553Z,42.60
2018-02-20T04:52:32.566Z,44.00
2018-02-20T04:53:32.574Z,46.00
2018-02-20T04:54:32.582Z,43.80
2018-02-20T04:55:32.592Z,43.20
2018-02-20T04:56:32.603Z,44.70
2018-02-20T04:57:32.606Z,44.50
2018-02-20T04:58:32.617Z,42.40
2018-02-20T04:59:32.626Z,42.20
2018-02-20T05:00:32.639Z,42.60
2018-02-20T05:01:32.654Z,43.10
2018-02-20T05:02:32.664Z,44.20
2018-02-20T05:03:32.665Z,42.60
2018-02-20T05:04:32.683Z,43.90
2018-02-20T05:05:32.680Z,43.50
2018-02-20T05:06:32.702Z,43.30
2018-02-20T05:07:32.697Z,44.30
2018-02-20T05:08:32.711Z,45.00
2018-02-20T05:09:32.720Z,44.70
2018-02-20T05:10:32.769Z,42.40
2018-02-20T05:11:32.735Z,43.70
2018-02-20T05:12:32.742Z,42.90
2018-02-20T05:13:32.753Z,43.80
2018-02-20T05:14:32.763Z,42.20
2018-02-20T05:15:32.765Z,44.00
2018-02-20T05:16:32.777Z,44.80
2018-02-20T05:17:32.777Z,44.00
2018-02-20T05:18:32.787Z,44.10
2018-02-20T05:19:32.807Z,42.90
2018-02-20T05:20:32.802Z,42.70
2018-02-20T05:21:32.809Z,42.70
2018-02-20T05:22:32.822Z,42.10
2018-02-20T05:23:32.825Z,42.40
2018-02-20T05:24:32.849Z,43.50
2018-02-20T05:25:32.845Z,42.80
2018-02-20T05:26:32.855Z,43.90
2018-02-20T05:27:32.858Z,42.50
2018-02-20T05:28:32.879Z,42.70
2018-02-20T05:29:32.884Z,42.20
2018-02-20T05:30:32.886Z,43.60
2018-02-20T05:31:32.900Z,43.10
2018-02-20T05:32:32.906Z,41.80
2018-02-20T05:33:32.915Z,43.30
2018-02-20T05:34:32.930Z,45.80
2018-02-20T05:35:32.933Z,43.30
2018-02-20T05:36:32.949Z,44.10
2018-02-20T05:37:32.956Z,42.60
2018-02-20T05:38:32.966Z,41.70
2018-02-20T05:39:32.975Z,44.10
2018-02-20T05:40:32.981Z,42.70
2018-02-20T05:41:32.986Z,43.10
2018-02-20T05:42:33.001Z,42.40
2018-02-20T05:43:33.004Z,45.60
2018-02-20T05:44:33.020Z,42.30
2018-02-20T05:45:33.030Z,42.80
2018-02-20T05:46:33.032Z,43.20
2018-02-20T05:47:33.040Z,43.10
2018-02-20T05:48:33.052Z,43.60
2018-02-20T05:49:33.057Z,42.10
2018-02-20T05:50:33.069Z,43.70
2018-02-20T05:51:33.075Z,43.10
2018-02-20T05:52:33.089Z,44.30
2018-02-20T05:53:33.097Z,43.90
2018-02-20T05:54:33.103Z,43.70
2018-02-20T05:55:33.117Z,43.80
2018-02-20T05:56:33.119Z,44.00
2018-02-20T05:57:33.133Z,43.50
2018-02-20T05:58:33.146Z,43.90
2018-02-20T05:59:33.146Z,43.90
2018-02-20T06:00:33.157Z,42.60
2018-02-20T06:01:33.155Z,44.60
2018-02-20T06:02:33.163Z,44.60
2018-02-20T06:03:33.174Z,44.10
2018-02-20T06:04:33.177Z,45.40
2018-02-20T06:05:33.187Z,43.50
2018-02-20T06:06:33.200Z,43.80
2018-02-20T06:07:33.209Z,44.60
2018-02-20T06:08:33.216Z,45.40
2018-02-20T06:09:33.243Z,45.00
2018-02-20T06:10:33.234Z,46.00
2018-02-20T06:11:33.246Z,44.60
2018-02-20T06:12:33.253Z,45.80
2018-02-20T06:13:33.258Z,45.80
2018-02-20T06:14:33.275Z,43.40
2018-02-20T06:15:33.276Z,46.60
2018-02-20T06:16:33.289Z,46.00
2018-02-20T06:17:33.298Z,46.30
2018-02-20T06:18:33.302Z,47.30
2018-02-20T06:19:33.320Z,46.20
2018-02-20T06:20:33.319Z,48.20
2018-02-20T06:21:33.328Z,46.80
2018-02-20T06:22:33.341Z,47.80
2018-02-20T06:23:33.335Z,50.90
2018-02-20T06:24:33.349Z,48.80
2018-02-20T06:25:33.356Z,46.10
2018-02-20T06:26:33.361Z,48.20
2018-02-20T06:27:33.372Z,47.20
2018-02-20T06:28:33.381Z,47.20
2018-02-20T06:29:33.385Z,48.10
2018-02-20T06:30:33.398Z,49.10
2018-02-20T06:31:33.407Z,49.60
2018-02-20T06:32:33.422Z,49.10
2018-02-20T06:33:33.427Z,45.80
2018-02-20T06:34:33.433Z,48.50
2018-02-20T06:35:33.451Z,48.60
2018-02-20T06:36:33.448Z,48.90
2018-02-20T06:37:33.462Z,51.00
2018-02-20T06:38:33.470Z,47.10
2018-02-20T06:39:33.478Z,49.10
2018-02-20T06:40:33.483Z,50.80
2018-02-20T06:41:33.486Z,52.60
2018-02-20T06:42:33.490Z,51.20
2018-02-20T06:43:33.508Z,50.70
2018-02-20T06:44:33.506Z,48.70
2018-02-20T06:45:33.515Z,48.80
2018-02-20T06:46:33.532Z,49.10
2018-02-20T06:47:33.534Z,48.70
2018-02-20T06:48:33.551Z,51.50
2018-02-20T06:49:33.555Z,49.80
2018-02-20T06:50:33.572Z,48.20
2018-02-20T06:51:33.575Z,49.30
2018-02-20T06:52:33.584Z,49.40
2018-02-20T06:53:33.588Z,49.60
2018-02-20T06:54:33.617Z,51.80
2018-02-20T06:55:33.609Z,49.00
2018-02-20T06:56:33.638Z,49.40
2018-02-20T06:57:33.615Z,47.90
2018-02-20T06:58:33.623Z,47.10
2018-02-20T06:59:33.634Z,48.20
2018-02-20T07:00:33.638Z,47.60
2018-02-20T07:01:33.650Z,50.80
2018-02-20T07:02:33.676Z,48.70
2018-02-20T07:03:33.667Z,48.30
2018-02-20T07:04:33.678Z,48.40
2018-02-20T07:05:33.689Z,49.30
2018-02-20T07:06:33.694Z,50.40
2018-02-20T07:07:33.707Z,47.90
2018-02-20T07:08:33.708Z,52.20
2018-02-20T07:09:33.720Z,48.40
2018-02-20T07:10:33.731Z,48.60
2018-02-20T07:11:33.759Z,48.30
2018-02-20T07:12:33.752Z,47.60
2018-02-20T07:13:33.762Z,49.80
2018-02-20T07:14:33.763Z,50.40
2018-02-20T07:15:33.777Z,48.00
2018-02-20T07:16:33.782Z,47.30
2018-02-20T07:17:33.793Z,48.80
2018-02-20T07:18:33.789Z,47.90
2018-02-20T07:19:33.794Z,47.80
2018-02-20T07:20:33.811Z,47.40
2018-02-20T07:21:33.815Z,47.00
2018-02-20T07:22:33.820Z,46.80
2018-02-20T07:23:33.839Z,46.10
2018-02-20T07:24:33.839Z,46.00
2018-02-20T07:25:33.849Z,47.90
2018-02-20T07:26:33.862Z,47.00
2018-02-20T07:27:33.863Z,45.30
2018-02-20T07:28:33.876Z,46.80
2018-02-20T07:29:33.890Z,45.10
2018-02-20T07:30:33.892Z,45.80
2018-02-20T07:31:33.937Z,48.10
2018-02-20T07:32:33.912Z,47.10
2018-02-20T07:33:33.928Z,46.50
2018-02-20T07:34:33.947Z,44.10
2018-02-20T07:35:33.945Z,46.40
2018-02-20T07:36:33.945Z,48.10
2018-02-20T07:37:33.955Z,47.10
2018-02-20T07:38:33.973Z,43.50
2018-02-20T07:39:33.972Z,46.00
2018-02-20T07:40:33.989Z,47.80
2018-02-20T07:41:33.992Z,45.60
2018-02-20T07:42:33.998Z,45.60
2018-02-20T07:43:34.015Z,47.70
2018-02-20T07:44:34.016Z,45.40
2018-02-20T07:45:34.027Z,44.80
2018-02-20T07:46:34.039Z,46.00
2018-02-20T07:47:34.042Z,47.10
2018-02-20T07:48:34.067Z,44.20
2018-02-20T07:49:34.065Z,47.00
2018-02-20T07:50:34.069Z,46.70
2018-02-20T07:51:34.083Z,45.50
2018-02-20T07:52:34.088Z,46.60
2018-02-20T07:53:34.096Z,46.00
2018-02-20T07:54:34.108Z,43.80
2018-02-20T07:55:34.115Z,44.70
2018-02-20T07:56:34.132Z,44.80
2018-02-20T07:57:34.143Z,46.00
2018-02-20T07:58:34.142Z,43.80
2018-02-20T07:59:34.161Z,46.30
2018-02-20T08:00:34.162Z,44.50
2018-02-20T08:01:34.172Z,46.70
2018-02-20T08:02:34.179Z,44.40
2018-02-20T08:03:34.187Z,45.70
2018-02-20T08:04:34.203Z,43.60
2018-02-20T08:05:34.211Z,47.00
2018-02-20T08:06:34.213Z,45.00
2018-02-20T08:07:34.227Z,45.10
2018-02-20T08:08:34.235Z,43.20
2018-02-20T08:09:34.243Z,45.50
2018-02-20T08:10:34.252Z,43.10
2018-02-20T08:11:34.256Z,43.90
2018-02-20T08:12:34.268Z,45.00
2018-02-20T08:13:34.278Z,46.80
2018-02-20T08:14:34.282Z,45.40
2018-02-20T08:15:34.297Z,44.80
2018-02-20T08:16:34.301Z,44.60
2018-02-20T08:17:34.311Z,44.60
2018-02-20T08:18:34.323Z,45.00
2018-02-20T08:19:34.335Z,44.40
2018-02-20T08:20:34.339Z,44.40
2018-02-20T08:21:34.353Z,43.00
2018-02-20T08:22:34.352Z,43.90
2018-02-20T08:23:34.368Z,45.00
2018-02-20T08:24:34.376Z,45.30
2018-02-20T08:25:34.384Z,45.00
2018-02-20T08:26:34.394Z,47.40
2018-02-20T08:27:34.399Z,45.30
2018-02-20T08:28:34.414Z,45.40
2018-02-20T08:29:34.423Z,44.80
2018-02-20T08:30:34.426Z,45.40
2018-02-20T08:31:34.441Z,43.60
2018-02-20T08:32:34.441Z,45.70
2018-02-20T08:33:34.451Z,44.40
2018-02-20T08:34:34.467Z,44.90
2018-02-20T08:35:34.473Z,45.70
2018-02-20T08:36:34.496Z,44.90
2018-02-20T08:37:34.567Z,43.70
2018-02-20T08:38:34.509Z,44.60
2018-02-20T08:39:34.524Z,44.20
2018-02-20T08:40:34.526Z,44.40
2018-02-20T08:41:34.535Z,44.80
2018-02-20T08:42:34.547Z,43.20
2018-02-20T08:43:34.562Z,42.60
2018-02-20T08:44:34.571Z,43.90
2018-02-20T08:45:34.576Z,43.30
2018-02-20T08:46:34.581Z,48.30
2018-02-20T08:47:34.595Z,43.50
2018-02-20T08:48:34.597Z,44.90
2018-02-20T08:49:34.609Z,44.70
2018-02-20T08:50:34.622Z,44.20
2018-02-20T08:51:34.627Z,43.90
2018-02-20T08:52:34.651Z,43.40
2018-02-20T08:53:34.649Z,42.90
2018-02-20T08:54:34.704Z,44.40
2018-02-20T08:55:34.679Z,45.00
2018-02-20T08:56:34.682Z,44.20
2018-02-20T08:57:34.696Z,44.30
2018-02-20T08:58:34.704Z,42.90
2018-02-20T08:59:34.708Z,42.50
2018-02-20T09:00:34.726Z,42.90
2018-02-20T09:01:34.733Z,43.80
2018-02-20T09:02:34.739Z,44.30
2018-02-20T09:03:34.754Z,43.80
2018-02-20T09:04:34.756Z,43.30
2018-02-20T09:05:34.768Z,43.40
2018-02-20T09:06:34.778Z,42.80
2018-02-20T09:07:34.784Z,44.40
2018-02-20T09:08:34.804Z,44.00
2018-02-20T09:09:34.813Z,43.30
2018-02-20T09:10:34.818Z,44.10
2018-02-20T09:11:34.836Z,43.40
2018-02-20T09:12:34.835Z,44.10
2018-02-20T09:13:34.862Z,42.80
2018-02-20T09:14:34.862Z,44.20
2018-02-20T09:15:34.863Z,41.40
2018-02-20T09:16:34.878Z,44.40
2018-02-20T09:17:34.887Z,43.00
2018-02-20T09:18:34.901Z,44.80
2018-02-20T09:19:34.902Z,42.20
2018-02-20T09:20:34.923Z,42.90
2018-02-20T09:21:34.929Z,44.80
2018-02-20T09:22:34.958Z,44.90
2018-02-20T09:23:34.948Z,43.40
2018-02-20T09:24:34.960Z,43.90
2018-02-20T09:25:34.970Z,44.20
2018-02-20T09:26:34.987Z,45.10
2018-02-20T09:27:34.989Z,45.10
2018-02-20T09:28:34.996Z,43.20
2018-02-20T09:29:35.002Z,42.80
2018-02-20T09:30:35.014Z,43.60
2018-02-20T09:31:35.017Z,45.30
2018-02-20T09:32:35.043Z,41.20
2018-02-20T09:33:35.056Z,42.70
2018-02-20T09:34:35.056Z,43.50
2018-02-20T09:35:35.084Z,40.90
2018-02-20T09:36:35.077Z,44.00
2018-02-20T09:37:35.086Z,42.70
2018-02-20T09:38:35.098Z,43.20
2018-02-20T09:39:35.100Z,42.40
2018-02-20T09:40:35.115Z,42.70
2018-02-20T09:41:35.123Z,42.60
2018-02-20T09:42:35.127Z,41.40
2018-02-20T09:43:35.165Z,42.30
2018-02-20T09:44:35.163Z,43.90
2018-02-20T09:45:35.171Z,43.00
2018-02-20T09:46:35.176Z,42.40
2018-02-20T09:47:35.191Z,41.80
2018-02-20T09:48:35.195Z,43.00
2018-02-20T09:49:35.205Z,43.80
2018-02-20T09:50:35.240Z,42.50
2018-02-20T09:51:35.225Z,43.70
2018-02-20T09:52:35.239Z,42.30
2018-02-20T09:53:35.243Z,42.50
2018-02-20T09:54:35.259Z,42.00
2018-02-20T09:55:35.275Z,42.10
2018-02-20T09:56:35.278Z,42.90
2018-02-20T09:57:35.289Z,42.10
2018-02-20T09:58:35.305Z,42.40
2018-02-20T09:59:35.319Z,40.60
2018-02-20T10:00:35.322Z,42.70
2018-02-20T10:01:35.326Z,42.10
2018-02-20T10:02:35.333Z,42.00
2018-02-20T10:03:35.361Z,42.90
2018-02-20T10:04:35.349Z,42.60
2018-02-20T10:05:35.358Z,41.20
2018-02-20T10:06:35.384Z,41.60
2018-02-20T10:07:35.395Z,42.10
2018-02-20T10:08:35.419Z,40.60
2018-02-20T10:09:35.411Z,42.20
2018-02-20T10:10:35.415Z,41.30
2018-02-20T10:11:35.427Z,41.60
2018-02-20T10:12:35.443Z,42.90
2018-02-20T10:13:35.447Z,41.80
2018-02-20T10:14:35.455Z,42.60
2018-02-20T10:15:35.473Z,41.90
2018-02-20T10:16:35.496Z,41.60
2018-02-20T10:17:35.508Z,42.10
2018-02-20T10:18:35.503Z,40.60
2018-02-20T10:19:35.513Z,41.10
2018-02-20T10:20:35.519Z,41.80
2018-02-20T10:21:35.542Z,42.70
2018-02-20T10:22:35.548Z,41.90
2018-02-20T10:23:35.558Z,42.10
2018-02-20T10:24:35.566Z,40.70
2018-02-20T10:25:35.580Z,42.80
2018-02-20T10:26:35.593Z,43.00
2018-02-20T10:27:35.600Z,42.60
2018-02-20T10:28:35.600Z,42.10
2018-02-20T10:29:35.609Z,42.70
2018-02-20T10:30:35.635Z,41.40
2018-02-20T10:31:35.643Z,41.00
2018-02-20T10:32:35.653Z,42.30
2018-02-20T10:33:35.662Z,42.90
2018-02-20T10:34:35.667Z,41.40
2018-02-20T10:35:35.694Z,42.70
2018-02-20T10:36:35.744Z,42.60
2018-02-20T10:37:35.703Z,41.50
2018-02-20T10:38:35.724Z,39.70
2018-02-20T10:39:35.725Z,40.90
2018-02-20T10:40:35.744Z,41.80
2018-02-20T10:41:35.745Z,40.70
2018-02-20T10:42:35.764Z,40.50
2018-02-20T10:43:35.779Z,39.80
2018-02-20T10:44:35.780Z,41.50
2018-02-20T10:45:35.787Z,40.70
2018-02-20T10:46:35.807Z,41.10
2018-02-20T10:47:35.811Z,40.40
2018-02-20T10:48:35.833Z,40.40
2018-02-20T10:49:35.842Z,41.30
2018-02-20T10:50:35.867Z,40.10
2018-02-20T10:51:35.858Z,40.10
2018-02-20T10:52:35.880Z,41.10
2018-02-20T10:53:35.888Z,40.30
2018-02-20T10:54:35.903Z,40.40
2018-02-20T10:55:35.907Z,41.50
2018-02-20T10:56:35.924Z,40.10
2018-02-20T10:57:35.942Z,39.60
2018-02-20T10:58:35.943Z,38.40
2018-02-20T10:59:35.957Z,40.70
2018-02-20T11:00:35.964Z,40.10
2018-02-20T11:01:35.972Z,39.90
2018-02-20T11:02:35.996Z,39.00
2018-02-20T11:03:35.996Z,40.60
2018-02-20T11:04:36.012Z,39.10
2018-02-20T11:05:36.021Z,37.90
2018-02-20T11:06:36.042Z,39.70
2018-02-20T11:07:36.057Z,40.40
2018-02-20T11:08:36.063Z,39.10
2018-02-20T11:09:36.070Z,40.10
2018-02-20T11:10:36.099Z,39.40
2018-02-20T11:11:36.101Z,40.30
2018-02-20T11:12:36.113Z,40.80
2018-02-20T11:13:36.117Z,41.20
2018-02-20T11:14:36.135Z,40.80
2018-02-20T11:15:36.151Z,40.50
2018-02-20T11:16:36.152Z,40.10
2018-02-20T11:17:36.166Z,38.70
2018-02-20T11:18:36.190Z,39.50
2018-02-20T11:19:36.208Z,38.20
2018-02-20T11:20:36.210Z,39.00
2018-02-20T11:21:36.216Z,39.10
2018-02-20T11:22:36.230Z,39.20
2018-02-20T11:23:36.244Z,37.20
2018-02-20T11:24:36.247Z,36.20
2018-02-20T11:25:36.257Z,36.70
2018-02-20T11:26:36.281Z,36.10
2018-02-20T11:27:36.288Z,35.80
2018-02-20T11:28:36.304Z,36.80
2018-02-20T11:29:36.311Z,32.60
2018-02-20T11:30:36.331Z,33.80
2018-02-20T11:31:36.344Z,34.20
2018-02-20T11:32:36.346Z,29.30
2018-02-20T11:33:36.366Z,30.50
2018-02-20T11:34:36.377Z,28.00
2018-02-20T11:35:36.387Z,29.00
2018-02-20T11:36:36.399Z,29.80
2018-02-20T11:37:36.422Z,29.00
2018-02-20T11:38:36.459Z,28.30
2018-02-20T11:39:36.439Z,29.50
2018-02-20T11:40:36.443Z,27.10
2018-02-20T11:41:36.462Z,27.70
2018-02-20T11:42:36.476Z,27.70
2018-02-20T11:43:36.478Z,27.30
2018-02-20T11:44:36.508Z,28.70
2018-02-20T11:45:36.514Z,28.20
2018-02-20T11:46:36.522Z,27.80
2018-02-20T11:47:36.534Z,27.50
2018-02-20T11:48:36.554Z,27.80
2018-02-20T11:49:36.559Z,26.40
2018-02-20T11:50:36.572Z,28.40
2018-02-20T11:51:36.599Z,27.80
2018-02-20T11:52:36.601Z,28.70
2018-02-20T11:53:36.613Z,27.20
2018-02-20T11:54:36.628Z,28.60
2018-02-20T11:55:36.639Z,29.10
2018-02-20T11:56:36.659Z,28.70
2018-02-20T11:57:36.661Z,28.60
2018-02-20T11:58:36.680Z,28.60
2018-02-20T11:59:36.688Z,28.50
2018-02-20T12:00:36.691Z,27.70
2018-02-20T12:01:36.719Z,28.60
2018-02-20T12:02:36.727Z,29.30
2018-02-20T12:03:36.733Z,28.10
2018-02-20T12:04:36.745Z,27.60
2018-02-20T12:05:36.768Z,27.60
2018-02-20T12:06:36.782Z,27.80
2018-02-20T12:07:36.788Z,27.10
2018-02-20T12:08:36.806Z,27.30
2018-02-20T12:09:36.811Z,26.80
2018-02-20T12:10:36.828Z,27.40
2018-02-20T12:11:36.830Z,28.20
2018-02-20T12:12:36.854Z,27.20
2018-02-20T12:13:36.863Z,27.50
2018-02-20T12:14:36.866Z,25.90
2018-02-20T12:15:36.907Z,25.60
2018-02-20T12:16:36.917Z,27.30
2018-02-20T12:17:36.907Z,24.00
2018-02-20T12:18:36.936Z,25.50
2018-02-20T12:19:36.942Z,25.70
2018-02-20T12:20:36.953Z,25.40
2018-02-20T12:21:36.958Z,24.80
2018-02-20T12:22:36.977Z,24.20
2018-02-20T12:23:37.000Z,24.00
2018-02-20T12:24:36.994Z,25.10
2018-02-20T12:25:37.014Z,24.10
2018-02-20T12:26:37.032Z,25.80
2018-02-20T12:27:37.034Z,23.50
2018-02-20T12:28:37.108Z,24.20
2018-02-20T12:29:37.073Z,25.30
2018-02-20T12:30:37.075Z,23.70
2018-02-20T12:31:37.086Z,24.50
2018-02-20T12:32:37.102Z,24.50
2018-02-20T12:33:37.118Z,24.60
2018-02-20T12:34:37.124Z,24.50
2018-02-20T12:35:37.142Z,25.00
2018-02-20T12:36:37.156Z,24.50
2018-02-20T12:37:37.169Z,24.20
2018-02-20T12:38:37.181Z,25.30
2018-02-20T12:39:37.201Z,25.20
2018-02-20T12:40:37.202Z,25.50
2018-02-20T12:41:37.221Z,25.50
2018-02-20T12:42:37.234Z,24.80
2018-02-20T12:43:37.241Z,26.20
2018-02-20T12:44:37.269Z,25.70
2018-02-20T12:45:37.275Z,25.00
2018-02-20T12:46:37.285Z,26.70
2018-02-20T12:47:37.306Z,25.10
2018-02-20T12:48:37.315Z,26.40
2018-02-20T12:49:37.318Z,25.50
2018-02-20T12:50:37.332Z,24.00
2018-02-20T12:51:37.349Z,24.00
2018-02-20T12:52:37.371Z,25.00